CheckWX is a tool to help pilots better visualize weather data.  It is not intended as a substitute for an official pre-flight weather briefing.

20:45:36 UTC

CYZR METAR
Sarnia Chris Hadfield Airport
Sarnia, Canada
Current

46 mins ago

CYZR 262000Z AUTO 25009KT 240V320 9SM CLR 29/13 A3002 RMK SLP166 DENSITY ALT 2200FT
Observed
Jun-26 @ 20:00 UTC
Wind
  • 250° at 9 KTS
Visibility
9 SM
Flight Rules
VFR
Cloud Levels
  • Clear skies
Temperature
29°C / 84°F
Dewpoint
13°C / 55°F
Humidity
37%
Altimeter
30.02" Hg
Pressure
1016.62 hPa
Previous

2 hours ago

CYZR 261900Z AUTO 27009G18KT 240V320 9SM CLR 29/13 A3002 RMK SLP164 DENSITY ALT 2100FT
Observed
Jun-26 @ 19:00 UTC
Wind
  • 270° at 9 KTS
  • Gusting to 18 KTS
Visibility
9 SM
Flight Rules
VFR
Cloud Levels
  • Clear skies
Temperature
29°C / 84°F
Dewpoint
13°C / 55°F
Humidity
37%
Altimeter
30.02" Hg
Pressure
1016.62 hPa
Previous

3 hours ago

CYZR 261800Z AUTO 28012G20KT 9SM CLR 28/13 A3002 RMK SLP164 DENSITY ALT 2100FT
Observed
Jun-26 @ 18:00 UTC
Wind
  • 280° at 12 KTS
  • Gusting to 20 KTS
Visibility
9 SM
Flight Rules
VFR
Cloud Levels
  • Clear skies
Temperature
28°C / 82°F
Dewpoint
13°C / 55°F
Heat Index
27°C / 81°F
Humidity
40%
Altimeter
30.02" Hg
Pressure
1016.62 hPa